Bavaria

Go HERE for most recent data if this page is not up to date.

Jump to table bottom
Date Time Temp F RH % AVG Wind Max Wind Wind Dir 24 Snow Depth
*01/28/22 06 21.2 22 13 20 W - 290 0.2 52.5
*01/28/22 05 20.8 19 12 20 W - 271 0.2 52.5
*01/28/22 04 18.9 21 10 18 W - 286 0.1 52.5
*01/28/22 03 18.7 20 10 15 W - 292 0.1 52.6
*01/28/22 02 18.2 21 11 17 W - 264 0.2 52.8
*01/28/22 01 18.1 22 7 16 W - 250 0.3 53.1
*01/28/22 00 15.7 29 5 14 NE - 31 0.2 53.1
*01/27/22 23 16.2 31 5 8 N - 9 0.3 53.0
*01/27/22 22 14.8 31 6 15 N - 15 0.2 53.0
*01/27/22 21 15.9 29 11 21 W - 248 0.2 53.1
*01/27/22 20 16.0 27 9 17 S - 197 0.1 53.1
*01/27/22 19 15.4 27 10 20 SW - 247 0.1 53.1
*01/27/22 18 14.5 28 12 20 SW - 206 0.2 53.0
*01/27/22 17 13.4 35 12 18 W - 251 0.0 52.8
*01/27/22 16 13.3 35 13 18 NW - 299 -0.1 52.6
*01/27/22 15 13.7 28 6 16 W - 292 -0.4 52.0
*01/27/22 14 18.0 52 3 6 E - 106 3.3 52.5
*01/27/22 13 13.9 54 8 14 E - 77 4.4 52.9
*01/27/22 12 11.5 41 8 17 NW - 315 4.9 52.8
*01/27/22 11 12.1 39 9 15 NE - 50 4.0 143.3
*01/27/22 10 13.3 43 5 11 S - 178 3.9 53.8
*01/27/22 09 5.2 77 3 8 E - 68 4.1 53.8
*01/27/22 08 2.6 80 2 7 NE - 38 4.4 54.2
*01/27/22 07 2.6 80 3 6 S - 159 4.5 54.3
*01/27/22 06 2.5 80 5 17 NW - 329 4.5 54.7
*01/27/22 05 5.0 82 4 15 NE - 31 4.7 53.9
*01/27/22 04 5.9 83 4 12 SE - 141 3.8 53.6
*01/27/22 03 7.1 83 2 5 S - 171 3.7 53.3
*01/27/22 02 7.1 83 4 15 E - 96 2.7 52.9
*01/27/22 01 7.9 84 3 9 SW - 243 2.3 51.9
*01/27/22 00 8.8 84 4 8 S - 179 0.5 50.9
.